Airport ID:K0A0
Update Time (UTC):23/06/2021 18:10
Wind Speed (Knots):3
Wind Direction (Magnetic):230
Temperature (°C):34.2
Dew Point (°C):4.6
Humidity (%):15.9
Altimeter (inHg):30.04
Density Altitude (Feet):07700
Visibility (Miles):5
Clouds (Hundreds of feet):CLR
Present Weather:HZ
METAR:METAR K0A0 231810Z AUTO VRB04KT 5SM HZ CLR 34/05 A3004 RMK AO2

The data displayed is for advisory purposes only and is not to be used for flight planning or operations.